Time;durP1;ratioP1;P1;durP2;ratioP2;P2;SDS_P1;SDS_P2;PMS_P1;PMS_P2;Temp;Humidity;BMP_temperature;BMP_pressure;BME280_temperature;BME280_humidity;BME280_pressure;Samples;Min_cycle;Max_cycle;Signal;HPM_P1;HPM_P2
2022/09/06 00:01:07;;;;;;;11.98;7.43;;;;;;;14.41;89.60;94159.19;5008892;28;20049;-68
2022/09/06 00:03:34;;;;;;;12.17;8.17;;;;;;;14.45;89.27;94153.56;5010868;28;20050;-64
2022/09/06 00:06:06;;;;;;;13.32;8.05;;;;;;;14.31;89.08;94152.72;5010303;28;20045;-66
2022/09/06 00:08:33;;;;;;;11.50;7.65;;;;;;;14.28;89.86;94156.34;5010685;28;20050;-64
2022/09/06 00:10:59;;;;;;;11.05;7.47;;;;;;;14.39;89.39;94154.09;5009792;28;20513;-69
2022/09/06 00:13:27;;;;;;;11.93;7.47;;;;;;;14.42;89.30;94149.66;5010634;28;20061;-65
2022/09/06 00:15:54;;;;;;;11.80;8.13;;;;;;;14.26;90.04;94158.75;5010110;28;20056;-68
2022/09/06 00:18:21;;;;;;;13.07;8.60;;;;;;;14.27;90.46;94151.28;5010545;28;20426;-64
2022/09/06 00:20:48;;;;;;;13.80;8.55;;;;;;;14.33;90.26;94161.34;5010279;28;20046;-64
2022/09/06 00:23:14;;;;;;;12.88;7.60;;;;;;;14.25;90.43;94159.97;5010340;28;20526;-62
2022/09/06 00:25:41;;;;;;;13.75;8.48;;;;;;;14.24;90.39;94155.66;5010143;28;20041;-66
2022/09/06 00:28:08;;;;;;;13.30;8.63;;;;;;;14.22;90.77;94155.31;5010413;28;20449;-65
2022/09/06 00:30:36;;;;;;;13.38;8.65;;;;;;;14.03;92.77;94161.72;5010503;28;20049;-64
2022/09/06 00:33:02;;;;;;;13.55;8.52;;;;;;;14.11;92.04;94152.06;5009946;28;20046;-63
2022/09/06 00:35:29;;;;;;;12.80;8.95;;;;;;;14.23;91.27;94151.34;5010355;28;20048;-63
2022/09/06 00:37:58;;;;;;;13.50;8.73;;;;;;;14.21;91.96;94151.00;5009892;28;20490;-72
2022/09/06 00:40:26;;;;;;;13.03;9.07;;;;;;;14.05;93.25;94145.50;5010400;28;20394;-63
2022/09/06 00:42:52;;;;;;;16.10;11.05;;;;;;;14.03;93.96;94156.22;5008527;28;20046;-63
2022/09/06 00:45:20;;;;;;;16.90;10.75;;;;;;;14.02;93.64;94158.16;5007873;28;20068;-63
2022/09/06 00:47:47;;;;;;;13.95;9.60;;;;;;;13.93;94.46;94160.78;5009731;28;20038;-65
2022/09/06 00:50:17;;;;;;;14.88;9.23;;;;;;;13.98;94.09;94151.97;5010097;28;20042;-66
2022/09/06 00:52:46;;;;;;;15.53;9.60;;;;;;;13.97;94.17;94164.22;5008432;28;20049;-65
2022/09/06 00:55:13;;;;;;;14.95;9.52;;;;;;;13.88;94.77;94167.56;5008676;28;20050;-68
2022/09/06 00:57:40;;;;;;;15.43;9.40;;;;;;;13.94;94.40;94165.06;5009697;28;20581;-62
2022/09/06 01:00:08;;;;;;;14.18;9.63;;;;;;;13.92;94.79;94173.81;5010086;28;20046;-64
2022/09/06 01:02:35;;;;;;;13.75;9.25;;;;;;;14.02;94.12;94162.94;5010251;28;20054;-67
2022/09/06 01:05:04;;;;;;;13.43;9.40;;;;;;;14.02;94.12;94160.16;5009417;28;20088;-63
2022/09/06 01:07:50;;;;;;;17.88;10.00;;;;;;;14.00;94.51;94155.06;5010098;28;20461;-63
2022/09/06 01:10:38;;;;;;;15.02;10.18;;;;;;;13.96;94.58;94157.94;5008922;28;20086;-63
2022/09/06 01:13:29;;;;;;;14.77;9.93;;;;;;;13.87;95.27;94163.28;5023631;28;20349;-63
2022/09/06 01:16:10;;;;;;;14.77;9.93;;;;;;;13.87;95.41;94162.50;5009529;28;20046;-68
2022/09/06 01:18:49;;;;;;;15.27;10.27;;;;;;;13.76;96.17;94160.78;5010224;28;20050;-63
2022/09/06 01:21:22;;;;;;;13.98;9.55;;;;;;;13.82;96.11;94165.75;5008879;28;21629;-64
2022/09/06 01:24:29;;;;;;;14.48;9.40;;;;;;;13.90;95.35;94156.88;5008181;28;20046;-68
2022/09/06 01:27:24;;;;;;;14.48;9.27;;;;;;;13.88;95.45;94159.28;5009128;28;20080;-64
2022/09/06 01:29:52;;;;;;;17.13;11.18;;;;;;;13.94;94.84;94163.13;5009552;28;20046;-67
2022/09/06 01:32:29;;;;;;;18.30;11.03;;;;;;;13.84;95.70;94166.88;5009339;28;20817;-67
2022/09/06 01:35:04;;;;;;;17.92;10.38;;;;;;;13.97;94.68;94166.97;5009402;28;20060;-64
2022/09/06 01:37:32;;;;;;;14.32;9.70;;;;;;;13.93;94.63;94171.81;4995549;28;20037;-63
2022/09/06 01:39:58;;;;;;;14.70;9.00;;;;;;;13.75;95.46;94173.00;5009447;28;20497;-63
2022/09/06 01:42:29;;;;;;;13.63;9.40;;;;;;;13.65;96.19;94179.53;5009726;28;20058;-64
2022/09/06 01:45:00;;;;;;;14.93;9.03;;;;;;;13.66;95.79;94170.09;5009113;28;20475;-63
2022/09/06 01:48:12;;;;;;;13.02;8.68;;;;;;;13.72;95.47;94176.63;5009824;28;20051;-64
2022/09/06 01:50:47;;;;;;;13.63;9.05;;;;;;;13.79;95.13;94170.94;5008820;28;20939;-63
2022/09/06 01:53:45;;;;;;;13.70;8.90;;;;;;;13.79;94.93;94178.44;4994151;28;20046;-64
2022/09/06 01:56:23;;;;;;;15.20;9.18;;;;;;;13.52;96.48;94179.44;5008418;28;20991;-63
2022/09/06 01:59:21;;;;;;;13.67;9.30;;;;;;;13.62;95.67;94182.38;5013009;28;20056;-64
2022/09/06 02:02:13;;;;;;;12.13;8.32;;;;;;;13.73;95.05;94185.69;5012725;28;20044;-63
2022/09/06 02:04:56;;;;;;;14.43;9.30;;;;;;;13.66;95.19;94186.63;5012855;28;20057;-63
2022/09/06 02:07:27;;;;;;;11.95;8.48;;;;;;;13.75;94.84;94183.28;5012980;28;20095;-66
2022/09/06 02:10:02;;;;;;;15.80;8.70;;;;;;;13.76;94.55;94185.59;5011236;28;20030;-65
2022/09/06 02:12:31;;;;;;;12.90;8.53;;;;;;;13.76;94.14;94182.84;5013022;28;20050;-68
2022/09/06 02:15:14;;;;;;;14.13;8.15;;;;;;;13.77;94.27;94186.38;4998735;28;20052;-64
2022/09/06 02:17:59;;;;;;;12.38;8.38;;;;;;;13.77;93.12;94175.34;5012344;28;20049;-64
2022/09/06 02:20:30;;;;;;;13.68;8.07;;;;;;;13.75;93.22;94178.53;5012456;28;20057;-69
2022/09/06 02:23:02;;;;;;;12.43;8.65;;;;;;;13.72;92.87;94170.31;5012262;28;20053;-64
2022/09/06 02:25:36;;;;;;;14.90;8.47;;;;;;;13.67;93.38;94185.41;5012892;28;20049;-68
2022/09/06 02:28:06;;;;;;;13.77;8.85;;;;;;;13.57;93.93;94173.41;5011994;28;20042;-67
2022/09/06 02:30:38;;;;;;;14.90;9.23;;;;;;;13.52;94.58;94175.91;5012686;28;20046;-63
2022/09/06 02:33:15;;;;;;;16.23;9.40;;;;;;;13.55;94.52;94172.28;5010198;28;21541;-66
2022/09/06 02:35:44;;;;;;;13.68;9.07;;;;;;;13.51;94.53;94175.13;5012008;28;20556;-66
2022/09/06 02:38:12;;;;;;;15.23;9.23;;;;;;;13.48;94.84;94169.69;5012383;28;20038;-69
2022/09/06 02:40:39;;;;;;;14.00;8.80;;;;;;;13.37;95.86;94170.69;5012502;28;20050;-68
2022/09/06 02:43:06;;;;;;;15.15;9.60;;;;;;;13.26;96.83;94163.84;5011238;28;20908;-64
2022/09/06 02:45:33;;;;;;;16.63;9.75;;;;;;;13.26;97.17;94166.59;5012315;28;20049;-64
2022/09/06 02:48:00;;;;;;;14.05;9.90;;;;;;;13.25;97.35;94167.81;5011847;28;20053;-65
2022/09/06 02:50:27;;;;;;;14.33;9.50;;;;;;;13.21;97.90;94167.09;5012079;28;20434;-65
2022/09/06 02:53:05;;;;;;;13.93;9.30;;;;;;;13.18;98.30;94160.47;5010555;28;20088;-64
2022/09/06 02:55:32;;;;;;;16.15;10.35;;;;;;;13.20;98.79;94163.59;5012278;28;20406;-67
2022/09/06 02:57:59;;;;;;;16.83;10.45;;;;;;;13.26;98.21;94170.16;5011710;28;20060;-64
2022/09/06 03:00:26;;;;;;;15.15;9.43;;;;;;;13.36;97.57;94158.13;5011733;28;20072;-67
2022/09/06 03:02:54;;;;;;;15.87;9.67;;;;;;;13.44;97.12;94153.25;5011636;28;20056;-63
2022/09/06 03:05:22;;;;;;;12.85;8.73;;;;;;;13.47;96.42;94148.84;5011712;28;20064;-63
2022/09/06 03:07:50;;;;;;;13.90;9.38;;;;;;;13.43;96.27;94151.69;5010846;28;20038;-63
2022/09/06 03:10:16;;;;;;;12.93;8.60;;;;;;;13.37;96.15;94156.16;5011261;28;20048;-64
2022/09/06 03:12:44;;;;;;;14.45;8.93;;;;;;;13.18;97.82;94158.50;5011353;28;20068;-64
2022/09/06 03:15:12;;;;;;;14.10;8.93;;;;;;;13.24;98.04;94161.53;5011600;28;20045;-65
2022/09/06 03:17:40;;;;;;;12.93;8.80;;;;;;;13.22;98.23;94160.38;5011956;28;20046;-64
2022/09/06 03:20:08;;;;;;;14.20;8.52;;;;;;;13.27;98.30;94152.38;5010441;28;20919;-69
2022/09/06 03:22:36;;;;;;;14.45;8.80;;;;;;;13.31;97.52;94149.59;5011705;28;20050;-64
2022/09/06 03:25:03;;;;;;;13.60;8.73;;;;;;;13.38;97.01;94147.47;5011061;28;20068;-64
2022/09/06 03:27:30;;;;;;;12.87;9.03;;;;;;;13.45;96.25;94140.22;5011590;28;20053;-65
2022/09/06 03:29:57;;;;;;;11.90;8.43;;;;;;;13.46;95.67;94150.03;5011122;28;20044;-63
2022/09/06 03:32:23;;;;;;;13.75;8.75;;;;;;;13.33;96.26;94150.72;5011142;28;20048;-64
2022/09/06 03:34:50;;;;;;;13.25;8.98;;;;;;;13.28;97.10;94151.19;5010997;28;20060;-65
2022/09/06 03:37:18;;;;;;;14.73;9.48;;;;;;;13.33;97.17;94153.47;5010777;28;20054;-63
2022/09/06 03:39:45;;;;;;;14.27;9.00;;;;;;;13.29;97.24;94147.25;5011037;28;20045;-67
2022/09/06 03:42:11;;;;;;;14.15;8.88;;;;;;;13.33;97.17;94147.19;5011107;28;20065;-63
2022/09/06 03:44:38;;;;;;;12.77;9.00;;;;;;;13.44;97.16;94144.97;5009954;28;20053;-63
2022/09/06 03:47:05;;;;;;;14.65;8.80;;;;;;;13.49;96.69;94141.69;5009895;28;20044;-63
2022/09/06 03:49:31;;;;;;;13.25;8.82;;;;;;;13.57;96.03;94137.56;5010750;28;20124;-66
2022/09/06 03:51:58;;;;;;;14.67;8.93;;;;;;;13.59;95.88;94137.91;5010924;28;20044;-64
2022/09/06 03:54:27;;;;;;;14.82;8.63;;;;;;;13.72;95.75;94131.72;5010741;28;20060;-64
2022/09/06 03:56:54;;;;;;;13.63;8.80;;;;;;;13.68;95.77;94131.03;5010740;28;20111;-68
2022/09/06 03:59:21;;;;;;;14.00;9.60;;;;;;;13.54;96.79;94132.13;5010921;28;20107;-63
2022/09/06 04:01:47;;;;;;;15.82;10.43;;;;;;;13.45;97.72;94129.19;5010594;28;20045;-63
2022/09/06 04:04:14;;;;;;;15.93;9.90;;;;;;;13.54;97.17;94127.41;5010782;28;20046;-65
2022/09/06 04:06:41;;;;;;;14.48;9.60;;;;;;;13.55;96.58;94125.41;5010181;28;20084;-64
2022/09/06 04:09:07;;;;;;;15.98;10.35;;;;;;;13.39;97.90;94121.44;5009460;28;20503;-68
2022/09/06 04:11:34;;;;;;;14.93;9.80;;;;;;;13.39;97.54;94132.47;5010833;28;20457;-67
2022/09/06 04:14:01;;;;;;;14.20;9.32;;;;;;;13.38;97.36;94133.69;5010429;28;20046;-63
2022/09/06 04:16:28;;;;;;;14.63;9.57;;;;;;;13.44;96.65;94133.16;5010393;28;20049;-64
2022/09/06 04:18:55;;;;;;;14.13;9.40;;;;;;;13.42;96.91;94130.84;5009446;28;20617;-66
2022/09/06 04:21:21;;;;;;;14.35;9.68;;;;;;;13.47;96.31;94141.34;5010272;28;20400;-64
2022/09/06 04:23:48;;;;;;;13.43;9.13;;;;;;;13.55;95.86;94139.22;4996368;28;20056;-63
2022/09/06 04:26:15;;;;;;;12.82;8.90;;;;;;;13.34;96.83;94144.00;5010074;28;20052;-63
2022/09/06 04:28:42;;;;;;;17.90;9.90;;;;;;;13.29;97.05;94138.19;5008649;28;20050;-63
2022/09/06 04:31:08;;;;;;;16.17;9.77;;;;;;;13.13;97.97;94155.47;5010333;28;20041;-63
2022/09/06 04:33:37;;;;;;;14.10;9.50;;;;;;;13.13;98.26;94152.69;5010410;28;20046;-69
2022/09/06 04:36:07;;;;;;;17.23;10.55;;;;;;;13.18;97.83;94146.69;5009597;28;20038;-65
2022/09/06 04:38:36;;;;;;;14.82;9.65;;;;;;;13.28;97.91;94147.66;5009991;28;20042;-63
2022/09/06 04:41:04;;;;;;;14.27;8.87;;;;;;;13.23;97.49;94154.44;5009974;28;20418;-64
2022/09/06 04:43:31;;;;;;;14.30;9.52;;;;;;;13.23;97.37;94142.66;5010173;28;20066;-65
2022/09/06 04:46:03;;;;;;;15.73;9.18;;;;;;;13.11;97.96;94150.38;5009335;28;20046;-65
2022/09/06 04:48:30;;;;;;;14.80;9.75;;;;;;;13.19;97.60;94157.28;5009775;28;20044;-64
2022/09/06 04:50:56;;;;;;;16.98;9.88;;;;;;;13.16;97.14;94151.88;5009389;28;20049;-68
2022/09/06 04:53:23;;;;;;;14.13;9.73;;;;;;;13.21;97.08;94164.34;5009786;28;20052;-65
2022/09/06 04:55:50;;;;;;;15.07;10.30;;;;;;;13.16;97.16;94166.41;5009605;28;20042;-64
2022/09/06 04:58:16;;;;;;;15.43;10.35;;;;;;;13.14;97.32;94165.28;5009713;28;20085;-64
2022/09/06 05:00:43;;;;;;;15.50;10.20;;;;;;;13.12;97.81;94168.47;5009737;28;20053;-64
2022/09/06 05:03:10;;;;;;;18.40;10.50;;;;;;;13.14;97.67;94174.31;5009969;28;20114;-64
2022/09/06 05:05:37;;;;;;;15.73;10.40;;;;;;;13.17;97.46;94167.94;5010045;28;20054;-65
2022/09/06 05:08:03;;;;;;;16.13;10.55;;;;;;;13.14;97.98;94162.53;5009461;28;20045;-69
2022/09/06 05:10:30;;;;;;;14.55;10.35;;;;;;;13.22;97.38;94163.94;5009609;28;20103;-65
2022/09/06 05:12:57;;;;;;;16.50;10.65;;;;;;;13.17;97.40;94170.69;5009435;28;20041;-63
2022/09/06 05:15:24;;;;;;;16.65;10.23;;;;;;;13.16;97.48;94162.88;5009323;28;20048;-65
2022/09/06 05:17:50;;;;;;;19.53;10.40;;;;;;;13.19;97.28;94165.53;5008302;28;20450;-68
2022/09/06 05:20:17;;;;;;;14.15;9.77;;;;;;;13.21;97.41;94164.34;5009210;28;20041;-65
2022/09/06 05:22:52;;;;;;;15.93;10.15;;;;;;;13.28;97.32;94169.69;5009355;28;20509;-64
2022/09/06 05:25:19;;;;;;;16.17;10.00;;;;;;;13.48;96.23;94172.44;5009387;28;20037;-64
2022/09/06 05:27:45;;;;;;;16.30;10.52;;;;;;;13.64;95.13;94174.44;5009158;28;20426;-65
2022/09/06 05:30:13;;;;;;;15.30;10.03;;;;;;;13.71;94.36;94175.06;5010023;28;20042;-64
2022/09/06 05:32:40;;;;;;;16.42;10.10;;;;;;;13.64;94.51;94185.47;5012916;28;20045;-63
2022/09/06 05:35:07;;;;;;;15.50;9.77;;;;;;;13.69;94.14;94180.25;5012147;28;20136;-70
2022/09/06 05:37:34;;;;;;;14.52;9.70;;;;;;;13.77;93.86;94178.88;5013224;28;20038;-65
2022/09/06 05:40:01;;;;;;;15.38;9.88;;;;;;;13.83;93.78;94194.91;5013219;28;20066;-64
2022/09/06 05:42:28;;;;;;;16.83;9.83;;;;;;;14.07;92.98;94199.06;5013272;28;20058;-64
2022/09/06 05:44:54;;;;;;;18.98;9.80;;;;;;;14.27;91.80;94193.44;5012587;28;20145;-68
2022/09/06 05:47:21;;;;;;;16.90;10.40;;;;;;;14.37;90.92;94195.16;5011675;28;20044;-65
2022/09/06 05:49:48;;;;;;;17.00;10.73;;;;;;;14.26;91.32;94199.41;5012723;28;20048;-64
2022/09/06 05:52:16;;;;;;;17.42;11.02;;;;;;;14.25;91.63;94197.84;5012987;28;20048;-72
2022/09/06 05:54:42;;;;;;;20.13;11.53;;;;;;;14.59;90.71;94194.66;5012925;28;20064;-64
2022/09/06 05:57:09;;;;;;;16.30;10.40;;;;;;;14.85;90.04;94203.03;5013335;28;20042;-64
2022/09/06 05:59:36;;;;;;;16.58;11.30;;;;;;;14.75;89.21;94197.38;5012499;28;20050;-69
2022/09/06 06:02:03;;;;;;;18.05;11.07;;;;;;;14.61;89.40;94214.31;5012047;28;20476;-65
2022/09/06 06:04:33;;;;;;;18.23;10.98;;;;;;;14.55;89.29;94213.28;5012189;28;20046;-69
2022/09/06 06:07:00;;;;;;;18.33;10.80;;;;;;;14.62;90.04;94209.56;5012061;28;20056;-62
2022/09/06 06:09:27;;;;;;;16.27;10.50;;;;;;;14.78;89.44;94207.53;5010968;28;20499;-64
2022/09/06 06:11:54;;;;;;;18.33;11.38;;;;;;;14.96;89.01;94218.09;5012277;28;20056;-63
2022/09/06 06:14:20;;;;;;;16.02;10.57;;;;;;;15.16;87.58;94215.19;5012369;28;20060;-64
2022/09/06 06:16:47;;;;;;;16.48;10.73;;;;;;;15.04;87.91;94232.50;5011756;28;20037;-66
2022/09/06 06:19:14;;;;;;;16.23;10.30;;;;;;;14.89;88.22;94223.03;5012702;28;20046;-65
2022/09/06 06:21:42;;;;;;;15.07;10.00;;;;;;;15.17;87.93;94224.25;5012137;28;20046;-69
2022/09/06 06:24:09;;;;;;;13.18;9.63;;;;;;;15.52;86.57;94221.69;5013113;28;20041;-65
2022/09/06 06:26:36;;;;;;;15.55;9.68;;;;;;;15.88;85.34;94213.13;5012540;28;20100;-66
2022/09/06 06:29:06;;;;;;;15.57;9.65;;;;;;;16.09;84.85;94205.34;5011947;28;20046;-64
2022/09/06 06:31:34;;;;;;;13.83;10.00;;;;;;;16.18;84.38;94211.00;5012810;28;20522;-65
2022/09/06 06:34:02;;;;;;;13.95;9.50;;;;;;;16.45;83.92;94212.50;5012433;28;20048;-69
2022/09/06 06:36:34;;;;;;;14.90;9.65;;;;;;;16.51;83.23;94213.50;5012379;28;20491;-64
2022/09/06 06:39:04;;;;;;;13.27;8.93;;;;;;;16.74;82.22;94206.75;5012213;28;20045;-64
2022/09/06 06:41:31;;;;;;;11.95;9.07;;;;;;;16.50;82.40;94206.38;5012094;28;20042;-69
2022/09/06 06:44:00;;;;;;;12.30;8.37;;;;;;;16.65;82.54;94209.47;5011411;28;20049;-69
2022/09/06 06:46:30;;;;;;;13.65;8.80;;;;;;;17.22;80.45;94203.94;5011746;28;20045;-67
2022/09/06 06:48:57;;;;;;;13.23;8.60;;;;;;;17.53;79.13;94202.00;5011846;28;20046;-66
2022/09/06 06:51:27;;;;;;;11.25;8.25;;;;;;;19.28;73.42;94192.56;5011988;28;20042;-69
2022/09/06 06:53:55;;;;;;;10.55;8.00;;;;;;;21.46;65.17;94188.84;5011718;28;20107;-66
2022/09/06 06:56:34;;;;;;;12.03;7.83;;;;;;;23.51;58.26;94192.03;5012052;28;20054;-70
2022/09/06 06:59:03;;;;;;;11.15;7.28;;;;;;;25.45;52.36;94194.34;5011822;28;20044;-66
2022/09/06 07:01:31;;;;;;;8.23;6.50;;;;;;;27.21;47.65;94195.06;5011807;28;20049;-66
2022/09/06 07:03:58;;;;;;;9.48;5.72;;;;;;;26.08;49.79;94196.03;5011485;28;20414;-67
2022/09/06 07:06:29;;;;;;;9.55;6.10;;;;;;;25.93;49.47;94194.72;5011575;28;20431;-69
2022/09/06 07:09:17;;;;;;;10.73;6.70;;;;;;;23.29;55.91;94196.13;5011066;28;20064;-66
2022/09/06 07:11:45;;;;;;;9.48;6.43;;;;;;;24.83;52.26;94196.13;5011534;28;20056;-66
2022/09/06 07:14:11;;;;;;;9.00;6.40;;;;;;;25.61;50.59;94187.25;5011824;28;20454;-66
2022/09/06 07:16:38;;;;;;;11.18;5.50;;;;;;;25.20;51.46;94192.47;5011484;28;20095;-67
2022/09/06 07:19:05;;;;;;;9.75;6.25;;;;;;;24.47;53.11;94195.66;5010998;28;20084;-68
2022/09/06 07:21:32;;;;;;;9.37;6.07;;;;;;;25.45;51.85;94188.72;5011560;28;20052;-67
2022/09/06 07:24:00;;;;;;;9.98;6.57;;;;;;;24.16;53.64;94196.44;5011321;28;20046;-70
2022/09/06 07:26:29;;;;;;;8.50;6.40;;;;;;;24.81;51.68;94193.84;5011624;28;20048;-66
2022/09/06 07:28:59;;;;;;;10.80;6.20;;;;;;;25.60;50.32;94190.56;5011054;28;20050;-67
2022/09/06 07:31:27;;;;;;;9.48;6.18;;;;;;;25.57;50.69;94188.78;5011504;28;20095;-67
2022/09/06 07:34:13;;;;;;;11.90;6.30;;;;;;;25.73;50.16;94181.66;5010423;28;20538;-67
2022/09/06 07:36:40;;;;;;;9.45;6.85;;;;;;;25.67;50.47;94190.81;5009675;28;20069;-70
2022/09/06 07:39:07;;;;;;;7.68;5.60;;;;;;;26.03;48.23;94190.38;5011310;28;20052;-66
2022/09/06 07:41:34;;;;;;;7.57;5.13;;;;;;;26.80;46.97;94182.41;5009780;28;20048;-67
2022/09/06 07:44:01;;;;;;;9.27;5.72;;;;;;;28.54;43.74;94184.75;5010981;28;20499;-67
2022/09/06 07:46:27;;;;;;;9.67;5.90;;;;;;;29.37;41.77;94182.28;5010907;28;20426;-69
2022/09/06 07:48:54;;;;;;;9.40;5.63;;;;;;;28.80;43.43;94179.34;5010846;28;20033;-65
2022/09/06 07:51:21;;;;;;;8.75;5.68;;;;;;;28.41;43.08;94193.81;5011436;28;20046;-65
2022/09/06 07:53:54;;;;;;;8.70;5.13;;;;;;;29.11;41.51;94197.00;5009710;28;20050;-65
2022/09/06 07:56:40;;;;;;;9.05;5.13;;;;;;;29.19;41.90;94197.19;5010443;28;20486;-63
2022/09/06 07:59:08;;;;;;;7.97;5.40;;;;;;;28.75;41.92;94190.69;5011302;28;20042;-68
2022/09/06 08:01:36;;;;;;;9.75;5.45;;;;;;;28.67;41.77;94188.47;5010818;28;20056;-69
2022/09/06 08:04:07;;;;;;;8.07;5.43;;;;;;;27.34;45.04;94191.69;5009457;28;20056;-68
2022/09/06 08:06:36;;;;;;;7.47;5.30;;;;;;;26.45;46.77;94188.56;5010584;28;20042;-66
2022/09/06 08:09:23;;;;;;;11.07;5.75;;;;;;;26.08;48.83;94186.81;5009832;28;20422;-68
2022/09/06 08:11:51;;;;;;;10.20;5.70;;;;;;;26.60;47.51;94183.47;5010148;28;20050;-67
2022/09/06 08:14:19;;;;;;;9.02;5.53;;;;;;;25.87;49.07;94181.41;5010692;28;20403;-65
2022/09/06 08:16:46;;;;;;;10.30;5.72;;;;;;;25.68;49.53;94177.56;5008044;28;20038;-66
2022/09/06 08:19:13;;;;;;;9.13;5.47;;;;;;;27.39;46.54;94180.41;5011172;28;20045;-69
2022/09/06 08:21:40;;;;;;;9.25;5.03;;;;;;;28.59;42.79;94184.69;5010672;28;20060;-66
2022/09/06 08:24:11;;;;;;;8.77;5.23;;;;;;;29.14;42.16;94175.38;5009898;28;20945;-67
2022/09/06 08:26:44;;;;;;;8.90;5.10;;;;;;;27.47;45.54;94187.03;5010607;28;20072;-67
2022/09/06 08:29:11;;;;;;;8.65;5.70;;;;;;;27.80;45.58;94181.69;5009893;28;21472;-69
2022/09/06 08:31:41;;;;;;;11.23;5.30;;;;;;;27.49;45.54;94181.63;5010060;28;20388;-68
2022/09/06 08:34:08;;;;;;;8.30;5.28;;;;;;;27.79;44.55;94169.66;5009146;28;20049;-69
2022/09/06 08:36:35;;;;;;;8.47;5.23;;;;;;;26.86;46.92;94183.16;5010321;28;20072;-70
2022/09/06 08:39:05;;;;;;;8.45;5.30;;;;;;;26.78;47.39;94190.56;5010071;28;20067;-67
2022/09/06 08:41:41;;;;;;;8.70;5.32;;;;;;;26.10;49.78;94192.69;5010284;28;20054;-66
2022/09/06 08:44:14;;;;;;;8.65;5.10;;;;;;;25.84;50.51;94196.47;5009449;28;20186;-69
2022/09/06 08:47:12;;;;;;;10.25;5.47;;;;;;;24.82;53.15;94205.84;5009897;28;20049;-66
2022/09/06 08:49:43;;;;;;;9.30;5.73;;;;;;;24.91;53.72;94214.81;5009871;28;20488;-66
2022/09/06 08:52:24;;;;;;;11.40;5.43;;;;;;;24.39;54.61;94209.38;5009583;28;21676;-70
2022/09/06 08:55:06;;;;;;;9.77;5.80;;;;;;;24.47;55.69;94201.28;5009449;28;20427;-66
2022/09/06 08:57:53;;;;;;;9.68;5.43;;;;;;;24.68;55.38;94205.50;5009714;28;20050;-66
2022/09/06 09:00:20;;;;;;;9.63;5.35;;;;;;;25.09;53.83;94210.03;5001448;28;20387;-65
2022/09/06 09:03:01;;;;;;;10.33;5.23;;;;;;;25.02;54.51;94207.72;5009397;28;20052;-65
2022/09/06 09:05:36;;;;;;;9.05;5.20;;;;;;;24.84;54.81;94208.91;5009532;28;20488;-66
2022/09/06 09:08:35;;;;;;;8.70;5.40;;;;;;;24.93;54.83;94217.09;5009593;28;20041;-66
2022/09/06 09:11:06;;;;;;;10.40;5.15;;;;;;;24.56;55.53;94211.53;5009821;28;20483;-69
2022/09/06 09:13:46;;;;;;;9.35;5.32;;;;;;;23.75;58.58;94208.56;5009895;28;20422;-66
2022/09/06 09:16:13;;;;;;;12.13;5.30;;;;;;;23.64;59.28;94209.22;5007219;28;20579;-66
2022/09/06 09:18:46;;;;;;;7.55;5.20;;;;;;;23.75;59.49;94221.81;5009765;28;20046;-64
2022/09/06 09:21:17;;;;;;;8.60;4.95;;;;;;;22.98;62.10;94219.16;5010098;28;20073;-66
2022/09/06 09:23:49;;;;;;;10.32;5.65;;;;;;;22.56;63.54;94220.38;5009320;28;20045;-68
2022/09/06 09:26:16;;;;;;;11.23;5.82;;;;;;;22.92;63.26;94227.47;5009838;28;20380;-65
2022/09/06 09:29:03;;;;;;;10.17;5.27;;;;;;;23.08;62.59;94225.38;5009167;28;20402;-66
2022/09/06 09:31:35;;;;;;;10.70;5.78;;;;;;;22.53;64.42;94221.31;5009793;28;20048;-68
2022/09/06 09:34:03;;;;;;;9.48;5.50;;;;;;;22.66;64.02;94224.56;5009501;28;20041;-66
2022/09/06 09:36:32;;;;;;;8.80;5.50;;;;;;;22.70;64.36;94224.38;5009770;28;20042;-66
2022/09/06 09:38:59;;;;;;;9.38;5.80;;;;;;;22.62;64.51;94226.03;5009228;28;20041;-66
2022/09/06 09:41:35;;;;;;;11.40;6.00;;;;;;;22.17;65.77;94219.75;5009855;28;20417;-66
2022/09/06 09:44:06;;;;;;;10.20;5.55;;;;;;;21.92;67.38;94225.44;5008071;28;20505;-66
2022/09/06 09:46:34;;;;;;;8.50;5.70;;;;;;;21.98;67.49;94235.97;5009456;28;20058;-65
2022/09/06 09:49:27;;;;;;;9.95;5.63;;;;;;;21.74;68.18;94234.78;5009278;28;20050;-65
2022/09/06 09:52:10;;;;;;;10.77;6.30;;;;;;;21.81;68.45;94228.06;5009376;28;20509;-66
2022/09/06 09:54:41;;;;;;;11.03;6.57;;;;;;;21.69;69.51;94231.88;5009595;28;20053;-66
2022/09/06 09:57:16;;;;;;;11.80;6.20;;;;;;;21.62;69.77;94241.44;5009007;28;20749;-66
2022/09/06 09:59:48;;;;;;;12.98;6.15;;;;;;;21.68;70.55;94233.91;5009079;28;20052;-65
2022/09/06 10:02:29;;;;;;;9.55;5.90;;;;;;;21.74;71.31;94228.44;5009711;28;20038;-69
2022/09/06 10:05:02;;;;;;;10.10;6.10;;;;;;;21.51;73.00;94228.03;5009168;28;20054;-66
2022/09/06 10:07:31;;;;;;;10.63;5.30;;;;;;;21.23;72.84;94218.31;5009612;28;20034;-68
2022/09/06 10:10:12;;;;;;;10.75;5.60;;;;;;;21.01;74.63;94210.31;5007987;28;20038;-69
2022/09/06 10:12:41;;;;;;;13.30;5.35;;;;;;;20.79;75.85;94211.38;5009257;28;20042;-67
2022/09/06 10:15:11;;;;;;;10.73;5.60;;;;;;;20.43;78.83;94206.75;5007773;28;20131;-66
2022/09/06 10:17:49;;;;;;;16.92;6.22;;;;;;;20.36;79.36;94196.72;4996566;28;20537;-66
2022/09/06 10:20:16;;;;;;;10.67;5.53;;;;;;;20.37;79.52;94189.16;4999763;28;20917;-66
2022/09/06 10:23:01;;;;;;;15.70;5.55;;;;;;;20.43;79.23;94187.25;5012255;28;20050;-66
2022/09/06 10:25:45;;;;;;;13.32;5.85;;;;;;;20.82;80.90;94174.16;4999458;28;20561;-67
2022/09/06 10:28:35;;;;;;;10.68;6.43;;;;;;;21.05;80.82;94171.81;5011996;28;20109;-66
2022/09/06 10:31:08;;;;;;;10.70;6.40;;;;;;;21.15;80.78;94162.88;5011217;28;20073;-69
2022/09/06 10:33:47;;;;;;;13.77;7.07;;;;;;;20.89;81.60;94161.88;5012614;28;20042;-65
2022/09/06 10:36:20;;;;;;;11.50;6.38;;;;;;;21.13;81.49;94148.63;5007991;28;20108;-67
2022/09/06 10:38:55;;;;;;;11.18;6.90;;;;;;;21.01;82.41;94148.91;5010764;28;20072;-66
2022/09/06 10:41:41;;;;;;;13.98;6.50;;;;;;;21.19;82.43;94148.75;5012685;28;20086;-66
2022/09/06 10:44:29;;;;;;;11.77;5.93;;;;;;;21.59;79.70;94135.47;5011614;28;20174;-67
2022/09/06 10:47:09;;;;;;;12.87;6.00;;;;;;;22.66;75.37;94137.09;5011870;28;20046;-66
2022/09/06 10:49:37;;;;;;;15.18;6.50;;;;;;;22.98;74.60;94142.78;5011139;28;20041;-70
2022/09/06 10:52:08;;;;;;;10.65;6.05;;;;;;;23.19;73.42;94149.94;5011751;28;20050;-68
2022/09/06 10:54:39;;;;;;;11.32;5.88;;;;;;;23.27;71.27;94147.47;5011886;28;20044;-66
2022/09/06 10:57:14;;;;;;;7.57;5.47;;;;;;;23.37;67.88;94145.28;5010125;28;21692;-66
2022/09/06 11:00:11;;;;;;;13.13;6.00;;;;;;;23.49;67.38;94135.72;5011782;28;20080;-66
2022/09/06 11:02:59;;;;;;;11.70;5.93;;;;;;;24.03;65.84;94130.34;5011845;28;20072;-66
2022/09/06 11:05:52;;;;;;;11.98;6.20;;;;;;;23.68;67.51;94127.72;5010344;28;21764;-67
2022/09/06 11:08:52;;;;;;;10.88;5.78;;;;;;;23.98;65.03;94122.66;5012090;28;20065;-66
2022/09/06 11:11:39;;;;;;;12.38;5.88;;;;;;;24.95;61.68;94115.53;5010941;28;21550;-66
2022/09/06 11:14:11;;;;;;;11.60;5.23;;;;;;;25.69;58.91;94108.81;5010964;28;20068;-66
2022/09/06 11:16:47;;;;;;;8.05;4.93;;;;;;;26.64;57.40;94110.78;5011838;28;20046;-66
2022/09/06 11:19:24;;;;;;;7.35;4.80;;;;;;;27.04;54.00;94117.00;5011055;28;20411;-66
2022/09/06 11:22:21;;;;;;;9.13;4.47;;;;;;;26.66;55.48;94110.25;5010991;28;20495;-66
2022/09/06 11:25:17;;;;;;;8.95;5.22;;;;;;;26.47;56.18;94112.84;5011228;28;20168;-67
2022/09/06 11:27:49;;;;;;;8.20;4.33;;;;;;;26.87;53.54;94102.25;4991816;28;20049;-68
2022/09/06 11:30:18;;;;;;;7.30;4.40;;;;;;;26.86;52.81;94109.94;5011165;28;20054;-66
2022/09/06 11:32:49;;;;;;;9.27;4.20;;;;;;;27.62;49.69;94101.31;5010952;28;20054;-67
2022/09/06 11:35:29;;;;;;;9.02;4.15;;;;;;;26.92;53.29;94104.25;5011372;28;20302;-66
2022/09/06 11:38:07;;;;;;;7.75;4.13;;;;;;;26.78;53.59;94100.47;5009735;28;20538;-66
2022/09/06 11:40:42;;;;;;;10.43;4.70;;;;;;;26.64;54.17;94102.34;5011465;28;20041;-66
2022/09/06 11:43:17;;;;;;;8.90;4.72;;;;;;;26.53;55.02;94105.16;5010562;28;20356;-66
2022/09/06 11:45:51;;;;;;;10.60;4.85;;;;;;;26.61;54.81;94108.22;5010144;28;20054;-66
2022/09/06 11:48:32;;;;;;;11.93;5.15;;;;;;;25.94;57.84;94107.06;5011289;28;20111;-70